createdAt,value
2019-04-06T00:01:10.782Z,89.10
2019-04-06T00:04:00.865Z,89.50
2019-04-06T00:06:51.265Z,89.70
2019-04-06T00:09:42.475Z,90.00
2019-04-06T00:12:33.096Z,90.10
2019-04-06T00:15:26.059Z,90.30
2019-04-06T00:18:17.300Z,90.30
2019-04-06T00:21:08.892Z,90.30
2019-04-06T00:23:59.427Z,90.30
2019-04-06T00:26:50.695Z,90.30
2019-04-06T00:29:41.898Z,90.20
2019-04-06T00:32:53.035Z,90.00
2019-04-06T00:35:44.477Z,90.00
2019-04-06T00:38:35.334Z,89.70
2019-04-06T00:41:26.566Z,89.70
2019-04-06T00:44:17.866Z,89.80
2019-04-06T00:47:09.272Z,89.80
2019-04-06T00:49:59.633Z,89.80
2019-04-06T00:52:49.878Z,89.50
2019-04-06T00:55:40.179Z,89.50
2019-04-06T00:58:31.008Z,89.90
2019-04-06T01:01:22.285Z,89.80
2019-04-06T01:04:12.939Z,90.00
2019-04-06T01:07:03.576Z,90.00
2019-04-06T01:09:54.909Z,90.10
2019-04-06T01:12:45.765Z,90.20
2019-04-06T01:15:37.115Z,90.20
2019-04-06T01:18:27.454Z,90.20
2019-04-06T01:21:18.112Z,90.20
2019-04-06T01:24:10.407Z,90.10
2019-04-06T01:27:02.152Z,90.30
2019-04-06T01:29:53.665Z,90.60
2019-04-06T01:32:45.296Z,90.90
2019-04-06T01:35:37.670Z,90.80
2019-04-06T01:38:27.975Z,90.70
2019-04-06T01:41:18.657Z,90.70
2019-04-06T01:44:10.065Z,90.60
2019-04-06T01:47:00.410Z,90.60
2019-04-06T01:49:51.554Z,90.50
2019-04-06T01:52:42.180Z,90.50
2019-04-06T01:55:32.245Z,90.40
2019-04-06T01:58:23.449Z,90.40
2019-04-06T02:01:25.251Z,90.40
2019-04-06T02:04:16.052Z,90.40
2019-04-06T02:07:07.459Z,90.30
2019-04-06T02:09:57.740Z,90.30
2019-04-06T02:12:48.231Z,90.20
2019-04-06T02:15:39.226Z,90.20
2019-04-06T02:18:29.443Z,90.20
2019-04-06T02:21:22.297Z,90.40
2019-04-06T02:24:13.508Z,90.40
2019-04-06T02:27:03.757Z,90.60
2019-04-06T02:30:31.299Z,90.80
2019-04-06T02:33:28.659Z,90.70
2019-04-06T02:36:40.665Z,90.60
2019-04-06T02:40:01.948Z,90.60
2019-04-06T02:42:56.824Z,90.50
2019-04-06T02:45:47.966Z,90.40
2019-04-06T02:48:38.453Z,90.40
2019-04-06T02:51:32.254Z,90.40
2019-04-06T02:54:24.143Z,90.50
2019-04-06T02:57:14.391Z,90.50
2019-04-06T03:00:05.535Z,90.50
2019-04-06T03:02:56.174Z,90.50
2019-04-06T03:05:46.624Z,90.60
2019-04-06T03:08:37.177Z,90.60
2019-04-06T03:11:27.744Z,90.60
2019-04-06T03:14:19.427Z,90.60
2019-04-06T03:17:10.898Z,90.60
2019-04-06T03:20:02.180Z,90.60
2019-04-06T03:22:52.910Z,90.70
2019-04-06T03:25:43.362Z,90.60
2019-04-06T03:28:33.608Z,90.60
2019-04-06T03:31:27.307Z,90.70
2019-04-06T03:34:20.688Z,90.70
2019-04-06T03:37:08.135Z,90.70
2019-04-06T03:39:58.276Z,90.80
2019-04-06T03:42:49.521Z,90.80
2019-04-06T03:45:39.727Z,90.90
2019-04-06T03:48:30.829Z,90.90
2019-04-06T03:51:21.942Z,91.00
2019-04-06T03:54:12.962Z,91.00
2019-04-06T03:57:14.601Z,91.10
2019-04-06T03:59:55.539Z,91.30
2019-04-06T04:02:45.652Z,91.30
2019-04-06T04:05:36.281Z,91.70
2019-04-06T04:08:27.751Z,91.70
2019-04-06T04:11:19.422Z,91.50
2019-04-06T04:14:10.833Z,91.60
2019-04-06T04:17:02.095Z,91.60
2019-04-06T04:19:52.127Z,91.60
2019-04-06T04:22:42.969Z,91.60
2019-04-06T04:25:33.295Z,91.60
2019-04-06T04:28:24.185Z,91.60
2019-04-06T04:31:15.300Z,91.60
2019-04-06T04:34:09.068Z,91.50
2019-04-06T04:37:00.000Z,91.60
2019-04-06T04:39:51.350Z,91.50
2019-04-06T04:42:42.476Z,91.50
2019-04-06T04:45:32.515Z,91.60
2019-04-06T04:48:23.498Z,91.70
2019-04-06T04:51:13.709Z,91.70
2019-04-06T04:54:04.259Z,91.70
2019-04-06T04:56:55.131Z,91.80
2019-04-06T04:59:46.664Z,92.00
2019-04-06T05:02:38.102Z,92.00
2019-04-06T05:05:29.493Z,92.20
2019-04-06T05:08:19.929Z,92.40
2019-04-06T05:11:10.869Z,92.60
2019-04-06T05:14:56.473Z,92.80
2019-04-06T05:17:47.428Z,93.10
2019-04-06T05:20:37.837Z,93.30
2019-04-06T05:23:29.200Z,93.50
2019-04-06T05:26:21.660Z,93.80
2019-04-06T05:29:12.350Z,94.10
2019-04-06T05:32:02.850Z,94.60
2019-04-06T05:34:54.217Z,95.20
2019-04-06T05:37:44.712Z,96.00
2019-04-06T05:40:35.681Z,96.80
2019-04-06T05:43:26.740Z,97.70
2019-04-06T05:46:17.472Z,98.20
2019-04-06T05:49:08.561Z,98.90
2019-04-06T05:51:59.838Z,99.10
2019-04-06T05:54:50.198Z,99.20
2019-04-06T05:57:42.414Z,99.40
2019-04-06T06:00:34.456Z,99.80
2019-04-06T06:03:24.916Z,99.90
2019-04-06T06:06:16.208Z,99.90
2019-04-06T06:09:08.222Z,99.90
2019-04-06T06:11:58.644Z,99.90
2019-04-06T06:14:49.017Z,99.90
2019-04-06T06:17:40.089Z,99.90
2019-04-06T06:20:30.641Z,99.90
2019-04-06T06:23:21.829Z,99.90
2019-04-06T06:26:12.417Z,99.40
2019-04-06T06:29:02.663Z,98.80
2019-04-06T06:31:52.985Z,98.50
2019-04-06T06:34:43.240Z,98.30
2019-04-06T06:37:33.471Z,98.00
2019-04-06T06:40:24.345Z,97.70
2019-04-06T06:43:14.986Z,97.10
2019-04-06T06:46:05.576Z,95.70
2019-04-06T06:48:56.813Z,95.20
2019-04-06T06:51:48.152Z,94.40
2019-04-06T06:54:38.620Z,92.30
2019-04-06T06:57:30.379Z,91.80
2019-04-06T07:00:21.596Z,91.80
2019-04-06T07:03:13.757Z,91.40
2019-04-06T07:06:05.541Z,91.10
2019-04-06T07:08:56.785Z,90.40
2019-04-06T07:11:48.316Z,90.10
2019-04-06T07:14:39.701Z,88.40
2019-04-06T07:17:31.327Z,88.80
2019-04-06T07:20:23.050Z,88.20
2019-04-06T07:23:14.202Z,87.90
2019-04-06T07:26:05.856Z,87.30
2019-04-06T07:28:56.361Z,87.00
2019-04-06T07:31:46.712Z,82.90
2019-04-06T07:34:36.808Z,81.20
2019-04-06T07:37:27.955Z,77.10
2019-04-06T07:40:19.437Z,73.60
2019-04-06T07:43:09.937Z,74.50
2019-04-06T07:46:01.223Z,75.00
2019-04-06T07:48:51.784Z,73.20
2019-04-06T07:51:42.149Z,72.90
2019-04-06T07:54:32.556Z,71.70
2019-04-06T07:57:23.806Z,68.60
2019-04-06T08:00:14.802Z,68.60
2019-04-06T08:03:07.190Z,68.10
2019-04-06T08:05:58.201Z,67.40
2019-04-06T08:09:08.875Z,65.80
2019-04-06T08:12:00.114Z,61.70
2019-04-06T08:14:51.049Z,62.90
2019-04-06T08:17:42.121Z,62.80
2019-04-06T08:20:33.599Z,63.00
2019-04-06T08:23:24.472Z,63.20
2019-04-06T08:26:14.715Z,61.60
2019-04-06T08:29:05.108Z,60.10
2019-04-06T08:31:55.632Z,57.70
2019-04-06T08:34:46.335Z,56.80
2019-04-06T08:37:36.651Z,57.10
2019-04-06T08:40:26.913Z,57.20
2019-04-06T08:43:17.894Z,57.30
2019-04-06T08:46:09.074Z,57.60
2019-04-06T08:49:00.403Z,58.30
2019-04-06T08:51:50.915Z,56.80
2019-04-06T08:54:41.919Z,57.20
2019-04-06T08:57:33.190Z,55.50
2019-04-06T09:00:23.609Z,52.40
2019-04-06T09:03:14.434Z,53.20
2019-04-06T09:06:05.758Z,53.90
2019-04-06T09:08:57.117Z,53.30
2019-04-06T09:11:48.625Z,52.30
2019-04-06T09:14:39.667Z,51.90
2019-04-06T09:17:30.314Z,50.00
2019-04-06T09:20:21.562Z,49.00
2019-04-06T09:23:13.770Z,49.10
2019-04-06T09:26:04.880Z,49.30
2019-04-06T09:28:55.041Z,49.50
2019-04-06T09:31:57.826Z,48.80
2019-04-06T09:34:49.163Z,48.10
2019-04-06T09:37:39.566Z,49.90
2019-04-06T09:40:30.324Z,49.30
2019-04-06T09:43:21.601Z,47.60
2019-04-06T09:46:24.321Z,46.70
2019-04-06T09:49:34.462Z,46.60
2019-04-06T09:52:35.861Z,46.00
2019-04-06T09:55:41.285Z,45.40
2019-04-06T09:58:51.266Z,45.20
2019-04-06T10:02:02.418Z,44.90
2019-04-06T10:05:09.819Z,44.30
2019-04-06T10:08:24.815Z,43.50
2019-04-06T10:11:34.570Z,44.30
2019-04-06T10:14:57.601Z,43.30
2019-04-06T10:18:07.110Z,43.70
2019-04-06T10:21:16.997Z,43.80
2019-04-06T10:24:41.988Z,42.50
2019-04-06T10:28:03.742Z,42.70
2019-04-06T10:31:13.169Z,43.50
2019-04-06T10:34:28.093Z,41.80
2019-04-06T10:37:36.584Z,42.30
2019-04-06T10:40:51.632Z,41.30
2019-04-06T10:44:04.808Z,41.50
2019-04-06T10:47:18.454Z,41.50
2019-04-06T10:50:26.727Z,40.70
2019-04-06T10:53:38.656Z,40.40
2019-04-06T10:56:41.090Z,40.70
2019-04-06T11:00:03.406Z,39.30
2019-04-06T11:03:01.898Z,39.20
2019-04-06T11:05:58.002Z,39.70
2019-04-06T11:09:10.931Z,39.30
2019-04-06T11:12:26.202Z,38.10
2019-04-06T11:15:54.195Z,38.00
2019-04-06T11:19:16.544Z,37.90
2019-04-06T11:22:24.877Z,37.00
2019-04-06T11:25:34.245Z,36.80
2019-04-06T11:28:44.510Z,37.60
2019-04-06T11:31:52.620Z,37.50
2019-04-06T11:35:01.339Z,37.40
2019-04-06T11:38:27.881Z,37.20
2019-04-06T11:41:44.481Z,37.10
2019-04-06T11:44:56.160Z,37.20
2019-04-06T11:48:11.305Z,36.50
2019-04-06T11:51:17.620Z,36.20
2019-04-06T11:54:25.465Z,36.50
2019-04-06T11:57:30.605Z,36.80
2019-04-06T12:00:42.828Z,37.50
2019-04-06T12:03:51.247Z,37.50
2019-04-06T12:07:09.522Z,37.50
2019-04-06T12:10:18.266Z,37.30
2019-04-06T12:13:33.640Z,37.20
2019-04-06T12:16:45.146Z,37.40
2019-04-06T12:19:55.731Z,37.60
2019-04-06T12:22:53.642Z,37.90
2019-04-06T12:26:12.749Z,38.10
2019-04-06T12:29:20.920Z,38.50
2019-04-06T12:32:39.525Z,38.70
2019-04-06T12:35:52.604Z,38.80
2019-04-06T12:39:01.713Z,38.90
2019-04-06T12:42:10.505Z,39.30
2019-04-06T12:45:32.691Z,39.60
2019-04-06T12:48:47.913Z,39.70
2019-04-06T12:51:48.353Z,39.90
2019-04-06T12:55:02.121Z,39.90
2019-04-06T12:58:02.135Z,39.90
2019-04-06T13:01:12.448Z,39.90
2019-04-06T13:04:22.156Z,40.10
2019-04-06T13:07:27.092Z,40.10
2019-04-06T13:10:29.279Z,40.30
2019-04-06T13:13:35.787Z,40.10
2019-04-06T13:16:51.219Z,39.70
2019-04-06T13:20:02.585Z,40.30
2019-04-06T13:23:22.656Z,40.60
2019-04-06T13:26:32.035Z,40.60
2019-04-06T13:29:31.646Z,40.90
2019-04-06T13:32:40.763Z,41.00
2019-04-06T13:35:57.131Z,41.30
2019-04-06T13:39:10.111Z,41.60
2019-04-06T13:42:19.049Z,41.50
2019-04-06T13:45:34.809Z,41.50
2019-04-06T13:48:37.203Z,41.60
2019-04-06T13:51:49.586Z,41.50
2019-04-06T13:55:16.999Z,41.40
2019-04-06T13:58:12.344Z,41.70
2019-04-06T14:01:15.999Z,41.70
2019-04-06T14:04:19.605Z,41.60
2019-04-06T14:07:34.786Z,41.80
2019-04-06T14:10:53.472Z,41.80
2019-04-06T14:14:03.113Z,42.30
2019-04-06T14:17:11.480Z,42.50
2019-04-06T14:20:32.987Z,43.10
2019-04-06T14:23:40.739Z,43.00
2019-04-06T14:27:05.943Z,42.50
2019-04-06T14:30:18.493Z,43.30
2019-04-06T14:33:27.430Z,43.00
2019-04-06T14:36:36.262Z,42.90
2019-04-06T14:39:46.644Z,42.60
2019-04-06T14:42:56.465Z,42.80
2019-04-06T14:46:05.871Z,42.80
2019-04-06T14:49:28.550Z,43.00
2019-04-06T14:52:27.280Z,42.60
2019-04-06T14:55:37.589Z,43.30
2019-04-06T14:59:05.422Z,43.10
2019-04-06T15:02:11.853Z,43.00
2019-04-06T15:05:20.338Z,43.50
2019-04-06T15:08:48.187Z,43.60
2019-04-06T15:11:45.071Z,43.90
2019-04-06T15:14:45.879Z,44.20
2019-04-06T15:17:54.909Z,44.20
2019-04-06T15:20:52.253Z,44.00
2019-04-06T15:24:01.705Z,44.10
2019-04-06T15:27:11.394Z,44.30
2019-04-06T15:30:25.805Z,44.40
2019-04-06T15:33:34.561Z,44.50
2019-04-06T15:36:38.672Z,44.50
2019-04-06T15:39:39.430Z,44.70
2019-04-06T15:42:47.587Z,44.70
2019-04-06T15:45:54.955Z,44.80
2019-04-06T15:48:57.609Z,44.40
2019-04-06T15:52:11.389Z,44.80
2019-04-06T15:55:17.079Z,44.80
2019-04-06T15:58:30.599Z,44.60
2019-04-06T16:01:33.937Z,44.90
2019-04-06T16:04:41.469Z,44.70
2019-04-06T16:07:57.129Z,45.00
2019-04-06T16:11:04.370Z,45.10
2019-04-06T16:14:13.488Z,44.70
2019-04-06T16:17:24.103Z,44.70
2019-04-06T16:20:29.445Z,44.70
2019-04-06T16:23:39.174Z,44.60
2019-04-06T16:26:38.916Z,44.80
2019-04-06T16:30:00.625Z,45.00
2019-04-06T16:33:18.777Z,45.10
2019-04-06T16:36:15.713Z,45.30
2019-04-06T16:39:25.548Z,44.90
2019-04-06T16:42:34.805Z,44.90
2019-04-06T16:45:50.631Z,44.90
2019-04-06T16:49:11.899Z,45.10
2019-04-06T16:52:21.161Z,45.00
2019-04-06T16:55:31.471Z,45.50
2019-04-06T16:58:46.793Z,45.90
2019-04-06T17:02:04.805Z,46.20
2019-04-06T17:05:14.758Z,46.10
2019-04-06T17:08:28.171Z,46.60
2019-04-06T17:11:36.969Z,46.70
2019-04-06T17:14:40.096Z,47.40
2019-04-06T17:17:58.859Z,47.20
2019-04-06T17:20:54.780Z,50.20
2019-04-06T17:24:12.378Z,51.10
2019-04-06T17:27:36.705Z,51.90
2019-04-06T17:30:41.860Z,51.20
2019-04-06T17:33:41.268Z,51.00
2019-04-06T17:36:51.833Z,50.50
2019-04-06T17:39:48.251Z,51.60
2019-04-06T17:42:54.021Z,51.80
2019-04-06T17:46:06.532Z,51.60
2019-04-06T17:49:18.675Z,51.30
2019-04-06T17:52:21.721Z,51.80
2019-04-06T17:55:29.333Z,51.30
2019-04-06T17:58:34.799Z,52.50
2019-04-06T18:01:47.204Z,52.00
2019-04-06T18:05:03.312Z,53.40
2019-04-06T18:08:01.557Z,54.00
2019-04-06T18:11:12.338Z,52.40
2019-04-06T18:14:03.129Z,53.30
2019-04-06T18:16:53.335Z,53.20
2019-04-06T18:19:44.890Z,53.10
2019-04-06T18:22:35.873Z,53.40
2019-04-06T18:25:27.665Z,54.80
2019-04-06T18:28:19.702Z,55.10
2019-04-06T18:31:30.160Z,55.00
2019-04-06T18:34:20.478Z,54.70
2019-04-06T18:37:37.164Z,54.30
2019-04-06T18:40:29.301Z,54.10
2019-04-06T18:43:19.633Z,54.00
2019-04-06T18:46:11.564Z,53.90
2019-04-06T18:49:03.259Z,54.40
2019-04-06T18:51:55.547Z,54.40
2019-04-06T18:54:46.932Z,54.90
2019-04-06T18:57:37.426Z,55.80
2019-04-06T19:00:30.911Z,55.20
2019-04-06T19:03:21.315Z,54.80
2019-04-06T19:06:12.369Z,54.50
2019-04-06T19:09:05.434Z,55.30
2019-04-06T19:11:57.324Z,54.70
2019-04-06T19:14:47.579Z,54.60
2019-04-06T19:17:38.752Z,54.60
2019-04-06T19:20:30.547Z,55.40
2019-04-06T19:23:21.908Z,55.10
2019-04-06T19:26:12.829Z,54.90
2019-04-06T19:29:03.445Z,55.40
2019-04-06T19:31:54.476Z,55.50
2019-04-06T19:34:45.611Z,56.30
2019-04-06T19:37:36.530Z,56.40
2019-04-06T19:40:28.126Z,56.00
2019-04-06T19:43:18.747Z,56.20
2019-04-06T19:46:10.098Z,56.10
2019-04-06T19:49:01.557Z,56.10
2019-04-06T19:51:53.249Z,57.60
2019-04-06T19:54:43.795Z,56.40
2019-04-06T19:57:35.176Z,56.40
2019-04-06T20:00:25.693Z,56.80
2019-04-06T20:03:17.219Z,56.40
2019-04-06T20:06:07.818Z,56.80
2019-04-06T20:08:59.530Z,56.30
2019-04-06T20:11:50.046Z,56.60
2019-04-06T20:14:40.754Z,56.40
2019-04-06T20:17:31.810Z,57.10
2019-04-06T20:20:22.334Z,57.20
2019-04-06T20:23:16.415Z,56.80
2019-04-06T20:26:07.090Z,56.50
2019-04-06T20:29:04.728Z,56.60
2019-04-06T20:31:56.356Z,56.50
2019-04-06T20:34:47.505Z,58.30
2019-04-06T20:37:42.291Z,58.10
2019-04-06T20:40:33.519Z,57.00
2019-04-06T20:43:24.653Z,57.00
2019-04-06T20:46:15.918Z,57.40
2019-04-06T20:49:06.824Z,57.50
2019-04-06T20:51:59.037Z,57.20
2019-04-06T20:54:50.832Z,56.80
2019-04-06T20:57:41.314Z,56.80
2019-04-06T21:00:31.687Z,57.20
2019-04-06T21:03:21.974Z,57.10
2019-04-06T21:06:13.462Z,57.00
2019-04-06T21:09:07.425Z,57.30
2019-04-06T21:11:58.073Z,57.30
2019-04-06T21:14:52.566Z,57.60
2019-04-06T21:17:42.694Z,57.80
2019-04-06T21:20:34.170Z,57.80
2019-04-06T21:23:24.559Z,57.70
2019-04-06T21:26:15.154Z,57.60
2019-04-06T21:29:07.985Z,57.50
2019-04-06T21:31:58.755Z,57.60
2019-04-06T21:34:50.478Z,57.60
2019-04-06T21:37:41.523Z,57.50
2019-04-06T21:40:33.059Z,57.40
2019-04-06T21:43:23.638Z,57.60
2019-04-06T21:46:14.269Z,57.80
2019-04-06T21:49:06.143Z,58.40
2019-04-06T21:51:56.849Z,58.10
2019-04-06T21:54:47.990Z,58.10
2019-04-06T21:57:40.393Z,58.00
2019-04-06T22:00:50.070Z,58.30
2019-04-06T22:03:41.032Z,58.90
2019-04-06T22:06:31.710Z,59.00
2019-04-06T22:09:23.197Z,59.00
2019-04-06T22:12:13.415Z,58.80
2019-04-06T22:15:05.876Z,59.40
2019-04-06T22:17:57.903Z,59.60
2019-04-06T22:20:49.082Z,59.90
2019-04-06T22:23:47.457Z,59.80
2019-04-06T22:26:40.980Z,59.70
2019-04-06T22:29:35.264Z,59.60
2019-04-06T22:32:39.303Z,59.80
2019-04-06T22:35:30.634Z,60.10
2019-04-06T22:38:21.771Z,59.70
2019-04-06T22:41:12.771Z,59.70
2019-04-06T22:44:03.193Z,60.00
2019-04-06T22:46:54.195Z,60.00
2019-04-06T22:49:45.541Z,60.50
2019-04-06T22:52:36.758Z,60.40
2019-04-06T22:55:27.100Z,60.40
2019-04-06T22:58:17.746Z,60.60
2019-04-06T23:01:11.689Z,60.40
2019-04-06T23:04:22.035Z,61.00
2019-04-06T23:07:14.999Z,60.80
2019-04-06T23:10:06.115Z,60.90
2019-04-06T23:12:57.440Z,60.90
2019-04-06T23:15:49.705Z,60.80
2019-04-06T23:18:41.319Z,60.80
2019-04-06T23:21:32.628Z,60.90
2019-04-06T23:24:26.342Z,61.20
2019-04-06T23:27:37.692Z,61.10
2019-04-06T23:30:26.717Z,61.20
2019-04-06T23:33:17.599Z,61.10
2019-04-06T23:36:08.058Z,61.20
2019-04-06T23:39:00.131Z,61.20
2019-04-06T23:41:51.799Z,61.30
2019-04-06T23:44:43.271Z,61.40
2019-04-06T23:47:35.126Z,61.50
2019-04-06T23:50:25.978Z,61.50
2019-04-06T23:53:16.981Z,61.80
2019-04-06T23:56:09.111Z,62.20
2019-04-06T23:59:00.608Z,62.10
